createdAt,value
2018-11-21T00:00:25.114Z,78.95
2018-11-21T00:02:54.457Z,78.97
2018-11-21T00:05:23.845Z,79.20
2018-11-21T00:07:53.236Z,79.27
2018-11-21T00:10:22.590Z,79.27
2018-11-21T00:12:53.762Z,79.28
2018-11-21T00:15:23.156Z,79.17
2018-11-21T00:17:52.505Z,79.46
2018-11-21T00:20:21.894Z,79.45
2018-11-21T00:22:51.287Z,79.58
2018-11-21T00:25:20.677Z,79.47
2018-11-21T00:27:50.023Z,79.33
2018-11-21T00:30:19.371Z,79.49
2018-11-21T00:32:48.772Z,79.55
2018-11-21T00:35:18.113Z,79.47
2018-11-21T00:37:47.501Z,79.41
2018-11-21T00:40:16.861Z,79.23
2018-11-21T00:42:46.993Z,79.17
2018-11-21T00:45:15.635Z,78.86
2018-11-21T00:47:45.024Z,78.83
2018-11-21T00:50:14.629Z,78.88
2018-11-21T00:52:44.019Z,78.93
2018-11-21T00:55:13.362Z,79.00
2018-11-21T00:57:42.767Z,78.84
2018-11-21T01:00:12.814Z,78.93
2018-11-21T01:02:42.209Z,78.93
2018-11-21T01:05:11.552Z,78.73
2018-11-21T01:07:40.942Z,78.66
2018-11-21T01:10:10.332Z,78.52
2018-11-21T01:12:39.701Z,78.92
2018-11-21T01:15:09.093Z,79.16
2018-11-21T01:17:38.438Z,79.27
2018-11-21T01:20:08.574Z,79.29
2018-11-21T01:22:37.932Z,79.07
2018-11-21T01:25:07.961Z,79.04
2018-11-21T01:27:37.331Z,79.34
2018-11-21T01:30:07.448Z,79.15
2018-11-21T01:32:36.937Z,79.20
2018-11-21T01:35:07.183Z,78.83
2018-11-21T01:37:36.566Z,79.16
2018-11-21T01:40:06.993Z,79.43
2018-11-21T01:42:36.385Z,79.37
2018-11-21T01:45:05.821Z,79.27
2018-11-21T01:47:35.203Z,79.16
2018-11-21T01:50:04.589Z,79.21
2018-11-21T01:52:33.947Z,79.01
2018-11-21T01:55:03.372Z,79.10
2018-11-21T01:57:32.761Z,79.17
2018-11-21T02:00:02.143Z,79.27
2018-11-21T02:02:31.521Z,79.51
2018-11-21T02:05:00.903Z,79.52
2018-11-21T02:07:30.269Z,79.67
2018-11-21T02:09:59.701Z,79.76
2018-11-21T02:12:29.055Z,79.90
2018-11-21T02:14:58.400Z,80.10
2018-11-21T02:17:27.789Z,80.18
2018-11-21T02:19:57.134Z,80.07
2018-11-21T02:22:26.530Z,80.18
2018-11-21T02:24:55.927Z,80.08
2018-11-21T02:27:25.269Z,80.16
2018-11-21T02:29:55.633Z,80.06
2018-11-21T02:32:28.895Z,80.10
2018-11-21T02:34:58.234Z,80.13
2018-11-21T02:37:27.621Z,80.23
2018-11-21T02:39:57.017Z,80.22
2018-11-21T02:42:26.405Z,80.38
2018-11-21T02:44:55.795Z,80.51
2018-11-21T02:47:25.137Z,80.48
2018-11-21T02:49:54.536Z,80.55
2018-11-21T02:52:23.880Z,80.61
2018-11-21T02:54:53.269Z,80.58
2018-11-21T02:57:30.034Z,80.61
2018-11-21T03:00:07.823Z,80.52
2018-11-21T03:02:37.212Z,80.35
2018-11-21T03:05:06.835Z,80.02
2018-11-21T03:07:36.230Z,80.08
2018-11-21T03:10:06.603Z,80.09
2018-11-21T03:12:36.004Z,80.10
2018-11-21T03:15:05.596Z,79.95
2018-11-21T03:17:34.942Z,79.87
2018-11-21T03:20:04.293Z,80.13
2018-11-21T03:22:33.649Z,80.06
2018-11-21T03:25:03.000Z,80.30
2018-11-21T03:27:32.375Z,80.66
2018-11-21T03:30:01.780Z,80.87
2018-11-21T03:32:31.139Z,80.64
2018-11-21T03:35:00.490Z,80.50
2018-11-21T03:37:29.874Z,80.59
2018-11-21T03:39:59.260Z,80.60
2018-11-21T03:42:28.646Z,80.55
2018-11-21T03:44:58.150Z,80.56
2018-11-21T03:47:27.497Z,80.50
2018-11-21T03:49:56.842Z,80.33
2018-11-21T03:52:26.234Z,80.41
2018-11-21T03:54:55.585Z,81.06
2018-11-21T03:57:24.943Z,80.88
2018-11-21T03:59:54.291Z,80.87
2018-11-21T04:02:23.640Z,80.68
2018-11-21T04:04:53.029Z,81.01
2018-11-21T04:07:22.448Z,80.95
2018-11-21T04:09:51.800Z,80.99
2018-11-21T04:12:21.144Z,81.06
2018-11-21T04:14:50.575Z,81.02
2018-11-21T04:17:19.920Z,81.00
2018-11-21T04:19:49.314Z,80.75
2018-11-21T04:22:18.703Z,80.35
2018-11-21T04:24:48.104Z,80.48
2018-11-21T04:27:17.449Z,80.53
2018-11-21T04:29:46.799Z,80.33
2018-11-21T04:32:16.177Z,80.37
2018-11-21T04:34:45.571Z,80.32
2018-11-21T04:37:14.916Z,80.31
2018-11-21T04:39:44.304Z,80.27
2018-11-21T04:42:13.645Z,80.27
2018-11-21T04:44:43.039Z,80.24
2018-11-21T04:47:12.401Z,80.29
2018-11-21T04:49:41.860Z,80.32
2018-11-21T04:52:11.210Z,80.29
2018-11-21T04:54:40.600Z,80.10
2018-11-21T04:57:09.945Z,80.03
2018-11-21T04:59:39.336Z,80.13
2018-11-21T05:02:08.737Z,80.11
2018-11-21T05:04:38.089Z,80.07
2018-11-21T05:07:07.438Z,80.02
2018-11-21T05:09:36.851Z,80.02
2018-11-21T05:12:06.247Z,80.09
2018-11-21T05:14:35.639Z,79.96
2018-11-21T05:17:05.198Z,80.07
2018-11-21T05:19:34.541Z,80.12
2018-11-21T05:22:03.891Z,80.18
2018-11-21T05:24:33.283Z,80.16
2018-11-21T05:27:02.629Z,80.14
2018-11-21T05:29:32.021Z,80.13
2018-11-21T05:32:01.405Z,79.93
2018-11-21T05:34:30.825Z,79.89
2018-11-21T05:37:00.165Z,79.84
2018-11-21T05:39:29.509Z,79.69
2018-11-21T05:41:58.901Z,79.40
2018-11-21T05:44:31.438Z,79.51
2018-11-21T05:46:57.745Z,79.57
2018-11-21T05:49:27.140Z,79.59
2018-11-21T05:51:56.500Z,79.68
2018-11-21T05:54:26.026Z,79.62
2018-11-21T05:56:55.434Z,79.61
2018-11-21T05:59:24.790Z,79.81
2018-11-21T06:01:54.167Z,79.86
2018-11-21T06:04:23.565Z,79.83
2018-11-21T06:06:52.965Z,79.86
2018-11-21T06:09:22.354Z,79.77
2018-11-21T06:11:51.806Z,79.82
2018-11-21T06:14:21.205Z,79.69
2018-11-21T06:16:50.548Z,79.80
2018-11-21T06:19:19.966Z,79.72
2018-11-21T06:21:49.368Z,79.62
2018-11-21T06:24:18.757Z,79.51
2018-11-21T06:27:06.227Z,79.18
2018-11-21T06:29:35.638Z,79.11
2018-11-21T06:32:05.062Z,78.90
2018-11-21T06:34:34.418Z,79.01
2018-11-21T06:37:03.922Z,79.08
2018-11-21T06:39:33.289Z,79.11
2018-11-21T06:42:02.790Z,79.17
2018-11-21T06:44:32.156Z,79.44
2018-11-21T06:47:01.529Z,79.47
2018-11-21T06:49:30.930Z,79.47
2018-11-21T06:52:00.284Z,79.50
2018-11-21T06:54:29.705Z,79.22
2018-11-21T06:57:00.097Z,79.63
2018-11-21T06:59:29.447Z,79.58
2018-11-21T07:01:58.864Z,79.82
2018-11-21T07:04:28.266Z,79.79
2018-11-21T07:06:57.648Z,79.74
2018-11-21T07:09:27.066Z,79.94
2018-11-21T07:11:56.607Z,79.64
2018-11-21T07:14:26.018Z,79.24
2018-11-21T07:16:55.439Z,79.42
2018-11-21T07:19:24.904Z,79.31
2018-11-21T07:21:54.273Z,78.94
2018-11-21T07:24:26.446Z,78.79
2018-11-21T07:26:53.334Z,78.71
2018-11-21T07:29:22.710Z,78.35
2018-11-21T07:31:52.106Z,78.52
2018-11-21T07:34:21.671Z,78.52
2018-11-21T07:36:51.996Z,79.02
2018-11-21T07:39:21.465Z,79.06
2018-11-21T07:41:51.187Z,78.68
2018-11-21T07:44:20.578Z,78.58
2018-11-21T07:46:49.978Z,78.23
2018-11-21T07:49:19.392Z,78.06
2018-11-21T07:51:48.796Z,77.87
2018-11-21T07:54:18.187Z,77.96
2018-11-21T07:57:26.136Z,78.00
2018-11-21T08:00:41.169Z,77.86
2018-11-21T08:03:10.640Z,77.92
2018-11-21T08:05:44.393Z,77.88
2018-11-21T08:08:32.450Z,78.02
2018-11-21T08:11:26.997Z,77.74
2018-11-21T08:14:13.809Z,77.93
2018-11-21T08:17:04.840Z,77.46
2018-11-21T08:20:02.322Z,77.48
2018-11-21T08:22:46.919Z,77.84
2018-11-21T08:25:33.475Z,77.55
2018-11-21T08:28:20.234Z,77.30
2018-11-21T08:30:50.521Z,77.61
2018-11-21T08:33:20.253Z,77.47
2018-11-21T08:35:49.678Z,77.37
2018-11-21T08:38:19.077Z,77.32
2018-11-21T08:40:48.557Z,76.87
2018-11-21T08:43:17.954Z,77.51
2018-11-21T08:45:47.432Z,77.26
2018-11-21T08:48:17.712Z,77.08
2018-11-21T08:50:47.063Z,77.18
2018-11-21T08:53:16.471Z,76.93
2018-11-21T08:55:45.833Z,76.94
2018-11-21T08:58:15.233Z,76.83
2018-11-21T09:00:44.989Z,76.71
2018-11-21T09:03:14.344Z,76.97
2018-11-21T09:05:43.740Z,77.21
2018-11-21T09:08:13.093Z,76.62
2018-11-21T09:10:42.506Z,76.59
2018-11-21T09:13:11.943Z,76.42
2018-11-21T09:15:41.340Z,76.35
2018-11-21T09:18:10.741Z,76.99
2018-11-21T09:20:40.113Z,76.88
2018-11-21T09:23:09.537Z,76.81
2018-11-21T09:25:38.894Z,76.76
2018-11-21T09:28:08.258Z,76.54
2018-11-21T09:30:37.657Z,77.00
2018-11-21T09:33:07.102Z,77.00
2018-11-21T09:35:36.517Z,76.79
2018-11-21T09:38:05.878Z,76.53
2018-11-21T09:40:35.299Z,76.85
2018-11-21T09:43:04.656Z,76.54
2018-11-21T09:45:34.076Z,76.71
2018-11-21T09:48:03.518Z,76.78
2018-11-21T09:50:33.767Z,76.55
2018-11-21T09:53:03.197Z,76.65
2018-11-21T09:55:32.582Z,76.88
2018-11-21T09:58:01.933Z,77.33
2018-11-21T10:01:07.473Z,77.25
2018-11-21T10:03:38.249Z,77.93
2018-11-21T10:06:13.454Z,77.80
2018-11-21T10:11:57.181Z,78.03
2018-11-21T10:14:26.679Z,77.73
2018-11-21T10:16:56.044Z,77.93
2018-11-21T10:19:25.623Z,77.28
2018-11-21T10:21:54.985Z,77.35
2018-11-21T10:24:24.396Z,77.28
2018-11-21T10:26:53.759Z,76.88
2018-11-21T10:29:23.161Z,76.97
2018-11-21T10:31:52.613Z,77.02
2018-11-21T10:34:22.050Z,76.73
2018-11-21T10:36:51.412Z,76.66
2018-11-21T10:39:20.824Z,76.89
2018-11-21T10:41:50.179Z,77.10
2018-11-21T10:44:19.533Z,77.09
2018-11-21T10:46:48.989Z,77.14
2018-11-21T10:49:18.356Z,77.04
2018-11-21T10:51:47.747Z,77.46
2018-11-21T10:54:17.108Z,77.49
2018-11-21T10:56:46.883Z,77.99
2018-11-21T10:59:16.296Z,77.70
2018-11-21T11:02:05.458Z,77.61
2018-11-21T11:04:41.595Z,77.84
2018-11-21T11:07:28.333Z,77.78
2018-11-21T11:10:15.055Z,77.47
2018-11-21T11:13:12.367Z,77.14
2018-11-21T11:15:56.306Z,77.86
2018-11-21T11:18:44.762Z,77.65
2018-11-21T11:21:44.936Z,77.29
2018-11-21T11:24:41.715Z,76.90
2018-11-21T11:27:39.081Z,77.44
2018-11-21T11:30:30.159Z,77.00
2018-11-21T11:33:17.234Z,76.65
2018-11-21T11:36:04.109Z,76.30
2018-11-21T11:39:01.430Z,76.47
2018-11-21T11:41:55.716Z,76.31
2018-11-21T11:44:41.639Z,76.22
2018-11-21T11:47:28.795Z,75.98
2018-11-21T11:50:32.155Z,76.09
2018-11-21T11:53:26.253Z,76.34
2018-11-21T11:56:13.292Z,75.99
2018-11-21T11:59:04.398Z,76.18
2018-11-21T12:01:52.830Z,76.26
2018-11-21T12:04:41.452Z,76.14
2018-11-21T12:07:23.260Z,76.05
2018-11-21T12:10:10.163Z,76.06
2018-11-21T12:12:57.197Z,75.57
2018-11-21T12:15:51.590Z,75.88
2018-11-21T12:18:38.554Z,75.79
2018-11-21T12:21:32.696Z,75.66
2018-11-21T12:24:23.734Z,75.58
2018-11-21T12:27:18.130Z,75.59
2018-11-21T12:30:09.666Z,75.54
2018-11-21T12:33:13.425Z,75.63
2018-11-21T12:36:01.866Z,75.83
2018-11-21T12:38:48.569Z,75.85
2018-11-21T12:41:42.917Z,75.68
2018-11-21T12:44:28.936Z,75.45
2018-11-21T12:47:17.473Z,75.54
2018-11-21T12:50:24.006Z,75.40
2018-11-21T12:53:11.116Z,75.13
2018-11-21T12:56:05.700Z,74.76
2018-11-21T12:59:04.792Z,74.81
2018-11-21T13:01:42.655Z,74.30
2018-11-21T13:04:29.548Z,74.74
2018-11-21T13:07:20.791Z,74.74
2018-11-21T13:10:14.827Z,74.43
2018-11-21T13:13:01.478Z,74.68
2018-11-21T13:15:43.650Z,74.95
2018-11-21T13:18:40.165Z,74.98
2018-11-21T13:21:27.430Z,75.00
2018-11-21T13:24:24.781Z,74.80
2018-11-21T13:27:25.386Z,74.70
2018-11-21T13:30:25.796Z,74.45
2018-11-21T13:33:12.463Z,74.74
2018-11-21T13:36:00.954Z,74.83
2018-11-21T13:38:52.351Z,74.76
2018-11-21T13:41:40.843Z,74.79
2018-11-21T13:44:35.292Z,74.73
2018-11-21T13:47:22.140Z,75.17
2018-11-21T13:50:09.344Z,74.82
2018-11-21T13:53:13.097Z,74.99
2018-11-21T13:55:42.851Z,75.65
2018-11-21T13:58:12.325Z,75.61
2018-11-21T14:00:41.753Z,75.25
2018-11-21T14:03:11.574Z,75.29
2018-11-21T14:05:41.057Z,75.44
2018-11-21T14:08:10.508Z,75.24
2018-11-21T14:10:39.992Z,75.41
2018-11-21T14:13:09.472Z,75.56
2018-11-21T14:15:38.987Z,75.52
2018-11-21T14:18:08.446Z,75.67
2018-11-21T14:20:37.913Z,75.65
2018-11-21T14:23:07.409Z,75.67
2018-11-21T14:25:36.829Z,75.61
2018-11-21T14:28:06.262Z,75.48
2018-11-21T14:30:35.752Z,75.51
2018-11-21T14:33:05.614Z,75.45
2018-11-21T14:35:35.100Z,75.18
2018-11-21T14:38:04.536Z,75.51
2018-11-21T14:40:34.012Z,75.43
2018-11-21T14:43:03.461Z,75.34
2018-11-21T14:45:33.027Z,75.11
2018-11-21T14:48:02.444Z,75.23
2018-11-21T14:50:39.234Z,75.33
2018-11-21T14:53:05.382Z,75.21
2018-11-21T14:55:34.871Z,75.12
2018-11-21T14:58:04.293Z,75.30
2018-11-21T15:00:33.744Z,75.44
2018-11-21T15:03:03.220Z,75.37
2018-11-21T15:05:32.645Z,75.11
2018-11-21T15:08:02.129Z,75.04
2018-11-21T15:10:31.623Z,75.70
2018-11-21T15:13:01.200Z,75.68
2018-11-21T15:15:30.749Z,75.70
2018-11-21T15:18:00.192Z,76.11
2018-11-21T15:20:29.684Z,76.53
2018-11-21T15:22:59.128Z,76.69
2018-11-21T15:25:28.557Z,76.83
2018-11-21T15:27:58.087Z,77.11
2018-11-21T15:30:29.006Z,76.96
2018-11-21T15:32:58.993Z,76.89
2018-11-21T15:35:28.438Z,77.01
2018-11-21T15:37:57.930Z,77.07
2018-11-21T15:40:27.680Z,76.86
2018-11-21T15:42:57.222Z,76.87
2018-11-21T15:45:27.170Z,76.86
2018-11-21T15:47:58.314Z,77.34
2018-11-21T15:50:28.356Z,77.47
2018-11-21T15:52:57.793Z,77.43
2018-11-21T15:55:27.232Z,78.11
2018-11-21T15:57:56.709Z,78.44
2018-11-21T16:00:27.796Z,77.92
2018-11-21T16:02:59.397Z,77.93
2018-11-21T16:05:28.865Z,77.98
2018-11-21T16:08:03.279Z,77.93
2018-11-21T16:10:38.352Z,77.80
2018-11-21T16:13:08.167Z,77.78
2018-11-21T16:15:46.053Z,77.74
2018-11-21T16:18:16.125Z,77.57
2018-11-21T16:20:45.559Z,77.86
2018-11-21T16:23:15.040Z,77.94
2018-11-21T16:25:44.456Z,78.01
2018-11-21T16:28:13.883Z,78.12
2018-11-21T16:30:43.356Z,78.33
2018-11-21T16:33:12.836Z,78.28
2018-11-21T16:35:42.247Z,78.66
2018-11-21T16:38:11.672Z,78.77
2018-11-21T16:40:41.099Z,78.84
2018-11-21T16:43:10.629Z,78.92
2018-11-21T16:45:42.486Z,79.13
2018-11-21T16:48:11.940Z,79.27
2018-11-21T16:50:41.491Z,79.46
2018-11-21T16:53:10.954Z,79.57
2018-11-21T16:55:40.378Z,79.89
2018-11-21T16:58:09.840Z,79.71
2018-11-21T17:00:39.314Z,79.99
2018-11-21T17:03:08.741Z,79.69
2018-11-21T17:05:38.209Z,79.67
2018-11-21T17:08:07.689Z,79.74
2018-11-21T17:10:37.162Z,79.89
2018-11-21T17:13:06.965Z,79.81
2018-11-21T17:15:36.787Z,79.79
2018-11-21T17:18:06.459Z,79.77
2018-11-21T17:20:37.983Z,79.74
2018-11-21T17:23:07.420Z,79.57
2018-11-21T17:25:38.224Z,79.66
2018-11-21T17:28:07.711Z,79.63
2018-11-21T17:30:37.139Z,79.48
2018-11-21T17:33:06.566Z,79.38
2018-11-21T17:35:36.045Z,79.33
2018-11-21T17:38:05.484Z,79.33
2018-11-21T17:40:36.845Z,79.37
2018-11-21T17:43:06.701Z,80.03
2018-11-21T17:45:36.182Z,80.22
2018-11-21T17:48:05.748Z,80.06
2018-11-21T17:50:35.234Z,79.89
2018-11-21T17:53:05.844Z,79.97
2018-11-21T17:55:36.341Z,79.90
2018-11-21T17:58:05.922Z,79.79
2018-11-21T18:00:35.413Z,79.71
2018-11-21T18:03:05.410Z,79.76
2018-11-21T18:05:36.515Z,79.65
2018-11-21T18:08:05.998Z,79.48
2018-11-21T18:10:37.017Z,79.68
2018-11-21T18:13:06.903Z,79.56
2018-11-21T18:15:36.341Z,79.78
2018-11-21T18:18:06.256Z,79.91
2018-11-21T18:20:35.686Z,79.92
2018-11-21T18:23:05.249Z,79.91
2018-11-21T18:25:36.459Z,79.98
2018-11-21T18:28:06.070Z,79.80
2018-11-21T18:30:35.497Z,79.73
2018-11-21T18:33:05.182Z,79.75
2018-11-21T18:35:35.694Z,79.67
2018-11-21T18:38:04.066Z,79.88
2018-11-21T18:40:33.667Z,79.95
2018-11-21T18:43:03.161Z,80.05
2018-11-21T18:45:35.648Z,80.00
2018-11-21T18:48:05.162Z,80.17
2018-11-21T18:50:34.773Z,80.26
2018-11-21T18:53:05.440Z,80.38
2018-11-21T18:55:46.267Z,80.45
2018-11-21T18:58:42.636Z,80.85
2018-11-21T19:01:12.088Z,80.75
2018-11-21T19:03:41.502Z,80.73
2018-11-21T19:06:10.996Z,81.27
2018-11-21T19:08:40.437Z,81.16
2018-11-21T19:11:09.891Z,81.12
2018-11-21T19:13:39.453Z,80.93
2018-11-21T19:16:08.947Z,80.81
2018-11-21T19:18:38.522Z,80.73
2018-11-21T19:21:08.045Z,80.59
2018-11-21T19:23:37.477Z,80.99
2018-11-21T19:26:06.910Z,80.88
2018-11-21T19:28:36.399Z,80.82
2018-11-21T19:31:06.287Z,80.64
2018-11-21T19:33:35.768Z,80.60
2018-11-21T19:36:05.409Z,80.58
2018-11-21T19:38:34.887Z,80.69
2018-11-21T19:41:04.353Z,81.02
2018-11-21T19:43:33.792Z,81.21
2018-11-21T19:46:03.341Z,81.13
2018-11-21T19:48:32.824Z,81.04
2018-11-21T19:51:02.315Z,81.32
2018-11-21T19:53:31.802Z,81.30
2018-11-21T19:56:01.500Z,81.30
2018-11-21T19:58:30.771Z,81.16
2018-11-21T20:01:00.214Z,81.09
2018-11-21T20:03:29.689Z,80.97
2018-11-21T20:05:59.168Z,80.70
2018-11-21T20:08:28.658Z,80.51
2018-11-21T20:10:58.090Z,80.68
2018-11-21T20:13:27.530Z,80.45
2018-11-21T20:15:57.007Z,81.03
2018-11-21T20:18:26.626Z,80.95
2018-11-21T20:20:56.108Z,80.92
2018-11-21T20:23:25.588Z,80.81
2018-11-21T20:25:55.075Z,80.86
2018-11-21T20:28:24.511Z,80.50
2018-11-21T20:30:53.987Z,80.18
2018-11-21T20:33:23.424Z,79.67
2018-11-21T20:35:52.906Z,79.50
2018-11-21T20:38:22.330Z,79.33
2018-11-21T20:40:51.813Z,79.71
2018-11-21T20:43:21.289Z,79.87
2018-11-21T20:45:50.705Z,79.48
2018-11-21T20:48:20.134Z,79.25
2018-11-21T20:50:49.589Z,79.15
2018-11-21T20:53:19.054Z,79.81
2018-11-21T20:55:48.478Z,79.75
2018-11-21T20:58:17.936Z,80.70
2018-11-21T21:00:47.354Z,80.53
2018-11-21T21:03:16.840Z,80.57
2018-11-21T21:05:46.241Z,80.50
2018-11-21T21:08:15.715Z,80.56
2018-11-21T21:10:46.359Z,80.77
2018-11-21T21:13:15.785Z,80.94
2018-11-21T21:15:45.219Z,80.81
2018-11-21T21:18:14.694Z,80.66
2018-11-21T21:20:44.111Z,80.35
2018-11-21T21:23:13.589Z,80.23
2018-11-21T21:25:42.996Z,79.97
2018-11-21T21:28:12.422Z,79.96
2018-11-21T21:30:41.909Z,80.16
2018-11-21T21:33:11.334Z,80.24
2018-11-21T21:35:40.759Z,80.30
2018-11-21T21:38:10.216Z,80.25
2018-11-21T21:40:39.697Z,80.09
2018-11-21T21:43:09.109Z,80.23
2018-11-21T21:45:38.530Z,80.32
2018-11-21T21:48:07.991Z,80.47
2018-11-21T21:50:37.426Z,80.30
2018-11-21T21:53:06.890Z,80.06
2018-11-21T21:55:36.307Z,80.93
2018-11-21T21:58:05.763Z,80.50
2018-11-21T22:00:35.234Z,80.47
2018-11-21T22:03:04.713Z,80.30
2018-11-21T22:05:34.527Z,80.39
2018-11-21T22:08:03.992Z,80.48
2018-11-21T22:10:33.466Z,80.30
2018-11-21T22:13:02.943Z,80.25
2018-11-21T22:15:33.719Z,80.12
2018-11-21T22:18:04.904Z,80.07
2018-11-21T22:20:34.385Z,79.94
2018-11-21T22:23:03.796Z,79.92
2018-11-21T22:25:33.219Z,80.37
2018-11-21T22:28:02.685Z,80.42
2018-11-21T22:30:32.150Z,80.75
2018-11-21T22:33:01.875Z,80.99
2018-11-21T22:35:32.999Z,80.80
2018-11-21T22:38:02.470Z,80.77
2018-11-21T22:40:31.883Z,80.62
2018-11-21T22:43:01.357Z,80.52
2018-11-21T22:45:30.773Z,80.66
2018-11-21T22:48:00.301Z,80.59
2018-11-21T22:50:29.728Z,80.85
2018-11-21T22:52:59.160Z,80.51
2018-11-21T22:55:28.567Z,80.52
2018-11-21T22:57:57.998Z,80.51
2018-11-21T23:00:44.002Z,80.30
2018-11-21T23:03:14.542Z,80.36
2018-11-21T23:05:44.012Z,80.29
2018-11-21T23:08:13.434Z,80.45
2018-11-21T23:10:42.910Z,80.77
2018-11-21T23:13:12.326Z,80.61
2018-11-21T23:15:41.978Z,80.67
2018-11-21T23:18:11.395Z,80.62
2018-11-21T23:20:40.865Z,80.62
2018-11-21T23:23:10.407Z,80.53
2018-11-21T23:25:39.834Z,80.40
2018-11-21T23:28:09.307Z,80.55
2018-11-21T23:30:38.738Z,80.60
2018-11-21T23:33:08.199Z,80.40
2018-11-21T23:35:37.610Z,80.68
2018-11-21T23:38:07.080Z,80.86
2018-11-21T23:40:36.513Z,80.77
2018-11-21T23:43:06.078Z,80.63
2018-11-21T23:45:35.553Z,80.28
2018-11-21T23:48:04.971Z,81.24
2018-11-21T23:50:34.424Z,81.12
2018-11-21T23:53:03.854Z,80.61
2018-11-21T23:55:33.327Z,80.59
2018-11-21T23:58:02.822Z,80.47
